This is the latest recevied weather packets stored in our database for station/object KI2K. If no packets are shown the sender has not sent any weather packets the latest 10 day(s).
| Time | Temp. | Humidity | Pressure | Rain* | Wind** | Luminosity | Snow |
|---|---|---|---|---|---|---|---|
| 1777503896 | 15° C | 62% | 1012.4 hPa | 0 mm | - | 70 W/m² | - |
| 1777503593 | 15.56° C | 61% | 1012.6 hPa | 0 mm | - | 128 W/m² | - |
| 1777503290 | 15.56° C | 60% | 1012.5 hPa | 0 mm | - | 153 W/m² | - |
| 1777502986 | 15° C | 62% | 1012.5 hPa | 0 mm | - | 195 W/m² | - |
| 1777502684 | 15° C | 64% | 1012.4 hPa | 0 mm | - | 74 W/m² | - |
| 1777502381 | 15.56° C | 63% | 1012.6 hPa | 0 mm | - | 55 W/m² | - |
| 1777502077 | 15.56° C | 65% | 1012.4 hPa | 0 mm | - | 123 W/m² | - |
| 1777501774 | 15° C | 66% | 1012.1 hPa | 0 mm | - | 105 W/m² | - |
| 1777501472 | 15° C | 64% | 1012.2 hPa | 0 mm | - | 65 W/m² | - |
| 1777501168 | 15° C | 64% | 1011.9 hPa | 0 mm | - | 138 W/m² | - |
| 1777500867 | 15° C | 65% | 1012.1 hPa | 0 mm | - | 133 W/m² | - |
| 1777500564 | 15° C | 65% | 1011.9 hPa | 0 mm | - | 92 W/m² | - |
| 1777500260 | 15.56° C | 64% | 1011.9 hPa | 0 mm | - | 65 W/m² | - |
| 1777499957 | 16.67° C | 63% | 1012.1 hPa | 0 mm | - | 83 W/m² | - |
| 1777499654 | 16.67° C | 62% | 1012 hPa | 0 mm | - | 362 W/m² | - |
| 1777499351 | 16.67° C | 65% | 1011.9 hPa | 0 mm | - | 86 W/m² | - |
| 1777499049 | 16.11° C | 64% | 1011.8 hPa | 0 mm | - | 440 W/m² | - |
| 1777498744 | 16.67° C | 63% | 1011.8 hPa | 0 mm | - | 88 W/m² | - |
| 1777498441 | 16.67° C | 62% | 1012 hPa | 0 mm | - | 458 W/m² | - |
| 1777498138 | 16.67° C | 62% | 1011.9 hPa | 0 mm | - | 402 W/m² | - |
| 1777497835 | 17.22° C | 61% | 1011.7 hPa | 0 mm | - | 470 W/m² | - |
| 1777497531 | 16.11° C | 63% | 1012 hPa | 0 mm | - | 528 W/m² | - |
| 1777497227 | 17.22° C | 60% | 1011.7 hPa | 0 mm | - | 87 W/m² | - |
| 1777496924 | 16.67° C | 63% | 1011.6 hPa | 0 mm | - | 457 W/m² | - |
| 1777496621 | 16.11° C | 65% | 1011.7 hPa | 0 mm | - | 122 W/m² | - |
* Rain latest hour (hover to see other rain measurements)
** Current wind speed in m/s (hover to see current wind gust speed)